sensor_id;sensor_type;location;lat;lon;timestamp;P1;durP1;ratioP1;P2;durP2;ratioP2
69161;SDS011;56269;51.738;21.652;2023-07-31T00:00:48;6.78;;;2.95;;
69161;SDS011;56269;51.738;21.652;2023-07-31T00:03:25;5.88;;;2.75;;
69161;SDS011;56269;51.738;21.652;2023-07-31T00:05:51;6.33;;;2.87;;
69161;SDS011;56269;51.738;21.652;2023-07-31T00:08:17;6.30;;;2.95;;
69161;SDS011;56269;51.738;21.652;2023-07-31T00:10:43;6.20;;;2.75;;
69161;SDS011;56269;51.738;21.652;2023-07-31T00:13:09;6.25;;;2.67;;
69161;SDS011;56269;51.738;21.652;2023-07-31T00:15:35;6.03;;;2.80;;
69161;SDS011;56269;51.738;21.652;2023-07-31T00:18:01;5.90;;;2.77;;
69161;SDS011;56269;51.738;21.652;2023-07-31T00:20:28;6.22;;;2.65;;
69161;SDS011;56269;51.738;21.652;2023-07-31T00:22:54;5.45;;;2.50;;
69161;SDS011;56269;51.738;21.652;2023-07-31T00:25:20;5.70;;;2.80;;
69161;SDS011;56269;51.738;21.652;2023-07-31T00:27:46;6.00;;;2.73;;
69161;SDS011;56269;51.738;21.652;2023-07-31T00:30:12;6.95;;;2.78;;
69161;SDS011;56269;51.738;21.652;2023-07-31T00:32:38;6.05;;;2.72;;
69161;SDS011;56269;51.738;21.652;2023-07-31T00:35:04;6.30;;;2.67;;
69161;SDS011;56269;51.738;21.652;2023-07-31T00:37:31;5.68;;;2.40;;
69161;SDS011;56269;51.738;21.652;2023-07-31T00:39:57;6.47;;;2.70;;
69161;SDS011;56269;51.738;21.652;2023-07-31T00:42:24;6.43;;;2.70;;
69161;SDS011;56269;51.738;21.652;2023-07-31T00:44:50;5.80;;;2.60;;
69161;SDS011;56269;51.738;21.652;2023-07-31T00:47:16;6.47;;;2.72;;
69161;SDS011;56269;51.738;21.652;2023-07-31T00:49:43;6.25;;;2.45;;
69161;SDS011;56269;51.738;21.652;2023-07-31T00:52:09;5.93;;;2.63;;
69161;SDS011;56269;51.738;21.652;2023-07-31T00:54:36;6.28;;;2.55;;
69161;SDS011;56269;51.738;21.652;2023-07-31T00:57:02;5.40;;;2.42;;
69161;SDS011;56269;51.738;21.652;2023-07-31T00:59:29;6.07;;;2.63;;
69161;SDS011;56269;51.738;21.652;2023-07-31T01:01:55;5.10;;;2.17;;
69161;SDS011;56269;51.738;21.652;2023-07-31T01:04:21;5.78;;;2.50;;
69161;SDS011;56269;51.738;21.652;2023-07-31T01:06:48;6.10;;;2.40;;
69161;SDS011;56269;51.738;21.652;2023-07-31T01:09:36;4.72;;;2.10;;
69161;SDS011;56269;51.738;21.652;2023-07-31T01:12:14;5.55;;;2.30;;
69161;SDS011;56269;51.738;21.652;2023-07-31T01:14:52;4.93;;;1.90;;
69161;SDS011;56269;51.738;21.652;2023-07-31T01:17:41;5.03;;;1.98;;
69161;SDS011;56269;51.738;21.652;2023-07-31T01:20:13;6.03;;;2.00;;
69161;SDS011;56269;51.738;21.652;2023-07-31T01:31:27;5.00;;;1.90;;
69161;SDS011;56269;51.738;21.652;2023-07-31T01:33:56;4.85;;;1.92;;
69161;SDS011;56269;51.738;21.652;2023-07-31T01:36:25;4.47;;;1.85;;
69161;SDS011;56269;51.738;21.652;2023-07-31T01:38:51;5.22;;;1.98;;
69161;SDS011;56269;51.738;21.652;2023-07-31T01:41:18;4.83;;;2.13;;
69161;SDS011;56269;51.738;21.652;2023-07-31T01:43:45;5.35;;;1.85;;
69161;SDS011;56269;51.738;21.652;2023-07-31T01:46:11;5.18;;;2.10;;
69161;SDS011;56269;51.738;21.652;2023-07-31T01:48:37;5.25;;;2.08;;
69161;SDS011;56269;51.738;21.652;2023-07-31T01:51:04;6.22;;;2.20;;
69161;SDS011;56269;51.738;21.652;2023-07-31T01:53:30;6.13;;;2.20;;
69161;SDS011;56269;51.738;21.652;2023-07-31T01:55:57;6.13;;;2.47;;
69161;SDS011;56269;51.738;21.652;2023-07-31T01:58:23;5.38;;;2.30;;
69161;SDS011;56269;51.738;21.652;2023-07-31T02:00:49;6.95;;;2.22;;
69161;SDS011;56269;51.738;21.652;2023-07-31T02:03:15;4.90;;;2.10;;
69161;SDS011;56269;51.738;21.652;2023-07-31T02:05:45;4.97;;;2.05;;
69161;SDS011;56269;51.738;21.652;2023-07-31T02:08:14;5.30;;;2.08;;
69161;SDS011;56269;51.738;21.652;2023-07-31T02:10:42;4.75;;;1.98;;
69161;SDS011;56269;51.738;21.652;2023-07-31T02:13:08;5.97;;;2.47;;
69161;SDS011;56269;51.738;21.652;2023-07-31T02:15:34;6.47;;;2.47;;
69161;SDS011;56269;51.738;21.652;2023-07-31T02:18:00;5.10;;;2.20;;
69161;SDS011;56269;51.738;21.652;2023-07-31T02:20:27;5.82;;;2.65;;
69161;SDS011;56269;51.738;21.652;2023-07-31T02:22:53;5.53;;;2.40;;
69161;SDS011;56269;51.738;21.652;2023-07-31T02:25:20;5.45;;;2.28;;
69161;SDS011;56269;51.738;21.652;2023-07-31T02:27:46;5.80;;;2.30;;
69161;SDS011;56269;51.738;21.652;2023-07-31T02:30:12;5.88;;;2.40;;
69161;SDS011;56269;51.738;21.652;2023-07-31T02:32:38;5.72;;;2.60;;
69161;SDS011;56269;51.738;21.652;2023-07-31T02:35:04;5.60;;;2.47;;
69161;SDS011;56269;51.738;21.652;2023-07-31T02:37:30;5.50;;;2.37;;
69161;SDS011;56269;51.738;21.652;2023-07-31T02:39:57;5.25;;;2.22;;
69161;SDS011;56269;51.738;21.652;2023-07-31T02:42:23;5.20;;;2.22;;
69161;SDS011;56269;51.738;21.652;2023-07-31T02:44:49;5.07;;;2.28;;
69161;SDS011;56269;51.738;21.652;2023-07-31T02:47:17;5.43;;;2.37;;
69161;SDS011;56269;51.738;21.652;2023-07-31T02:49:43;5.57;;;2.30;;
69161;SDS011;56269;51.738;21.652;2023-07-31T02:52:09;7.38;;;2.92;;
69161;SDS011;56269;51.738;21.652;2023-07-31T02:54:38;6.40;;;2.63;;
69161;SDS011;56269;51.738;21.652;2023-07-31T02:57:04;6.10;;;2.53;;
69161;SDS011;56269;51.738;21.652;2023-07-31T02:59:30;6.10;;;2.60;;
69161;SDS011;56269;51.738;21.652;2023-07-31T03:01:56;6.53;;;2.72;;
69161;SDS011;56269;51.738;21.652;2023-07-31T03:04:23;6.00;;;2.55;;
69161;SDS011;56269;51.738;21.652;2023-07-31T03:06:48;5.18;;;2.17;;
69161;SDS011;56269;51.738;21.652;2023-07-31T03:09:15;5.67;;;2.43;;
69161;SDS011;56269;51.738;21.652;2023-07-31T03:11:41;5.50;;;2.30;;
69161;SDS011;56269;51.738;21.652;2023-07-31T03:14:07;5.53;;;2.33;;
69161;SDS011;56269;51.738;21.652;2023-07-31T03:16:33;6.03;;;2.90;;
69161;SDS011;56269;51.738;21.652;2023-07-31T03:18:59;5.50;;;2.47;;
69161;SDS011;56269;51.738;21.652;2023-07-31T03:21:25;5.43;;;2.30;;
69161;SDS011;56269;51.738;21.652;2023-07-31T03:23:51;6.22;;;2.30;;
69161;SDS011;56269;51.738;21.652;2023-07-31T03:26:17;5.05;;;2.28;;
69161;SDS011;56269;51.738;21.652;2023-07-31T03:28:44;5.10;;;2.33;;
69161;SDS011;56269;51.738;21.652;2023-07-31T03:31:10;5.47;;;2.60;;
69161;SDS011;56269;51.738;21.652;2023-07-31T03:33:37;5.53;;;2.35;;
69161;SDS011;56269;51.738;21.652;2023-07-31T03:36:03;5.88;;;2.67;;
69161;SDS011;56269;51.738;21.652;2023-07-31T03:38:29;6.78;;;2.70;;
69161;SDS011;56269;51.738;21.652;2023-07-31T03:40:55;6.53;;;2.50;;
69161;SDS011;56269;51.738;21.652;2023-07-31T03:43:22;7.30;;;2.65;;
69161;SDS011;56269;51.738;21.652;2023-07-31T03:45:48;5.85;;;2.60;;
69161;SDS011;56269;51.738;21.652;2023-07-31T03:48:14;6.30;;;2.60;;
69161;SDS011;56269;51.738;21.652;2023-07-31T03:50:41;6.33;;;2.67;;
69161;SDS011;56269;51.738;21.652;2023-07-31T03:53:08;5.72;;;2.60;;
69161;SDS011;56269;51.738;21.652;2023-07-31T03:55:37;8.60;;;3.00;;
69161;SDS011;56269;51.738;21.652;2023-07-31T03:58:03;6.28;;;2.45;;
69161;SDS011;56269;51.738;21.652;2023-07-31T04:00:29;6.78;;;2.35;;
69161;SDS011;56269;51.738;21.652;2023-07-31T04:02:56;5.93;;;2.33;;
69161;SDS011;56269;51.738;21.652;2023-07-31T04:05:23;6.38;;;2.53;;
69161;SDS011;56269;51.738;21.652;2023-07-31T04:07:49;5.88;;;2.55;;
69161;SDS011;56269;51.738;21.652;2023-07-31T04:10:15;6.43;;;2.50;;
69161;SDS011;56269;51.738;21.652;2023-07-31T04:12:41;6.70;;;2.60;;
69161;SDS011;56269;51.738;21.652;2023-07-31T04:15:07;5.07;;;2.03;;
69161;SDS011;56269;51.738;21.652;2023-07-31T04:17:34;5.45;;;2.42;;
69161;SDS011;56269;51.738;21.652;2023-07-31T04:20:02;5.78;;;1.92;;
69161;SDS011;56269;51.738;21.652;2023-07-31T04:22:29;5.03;;;2.13;;
69161;SDS011;56269;51.738;21.652;2023-07-31T04:24:55;4.90;;;2.03;;
69161;SDS011;56269;51.738;21.652;2023-07-31T04:27:21;4.25;;;1.70;;
69161;SDS011;56269;51.738;21.652;2023-07-31T04:29:47;5.40;;;2.10;;
69161;SDS011;56269;51.738;21.652;2023-07-31T04:32:16;5.10;;;2.22;;
69161;SDS011;56269;51.738;21.652;2023-07-31T04:34:42;5.80;;;2.40;;
69161;SDS011;56269;51.738;21.652;2023-07-31T04:37:09;3.87;;;1.47;;
69161;SDS011;56269;51.738;21.652;2023-07-31T04:39:35;4.78;;;2.00;;
69161;SDS011;56269;51.738;21.652;2023-07-31T04:42:04;6.13;;;1.80;;
69161;SDS011;56269;51.738;21.652;2023-07-31T04:44:30;5.50;;;2.20;;
69161;SDS011;56269;51.738;21.652;2023-07-31T04:46:56;4.97;;;2.00;;
69161;SDS011;56269;51.738;21.652;2023-07-31T04:49:23;4.47;;;1.87;;
69161;SDS011;56269;51.738;21.652;2023-07-31T04:51:49;5.57;;;1.98;;
69161;SDS011;56269;51.738;21.652;2023-07-31T04:54:15;4.97;;;2.00;;
69161;SDS011;56269;51.738;21.652;2023-07-31T04:56:43;4.70;;;1.90;;
69161;SDS011;56269;51.738;21.652;2023-07-31T04:59:09;4.87;;;1.80;;
69161;SDS011;56269;51.738;21.652;2023-07-31T05:01:36;4.57;;;1.83;;
69161;SDS011;56269;51.738;21.652;2023-07-31T05:04:01;4.18;;;1.67;;
69161;SDS011;56269;51.738;21.652;2023-07-31T05:06:28;4.78;;;2.08;;
69161;SDS011;56269;51.738;21.652;2023-07-31T05:08:54;4.53;;;1.63;;
69161;SDS011;56269;51.738;21.652;2023-07-31T05:11:20;4.57;;;1.92;;
69161;SDS011;56269;51.738;21.652;2023-07-31T05:13:46;4.90;;;1.92;;
69161;SDS011;56269;51.738;21.652;2023-07-31T05:16:12;5.03;;;2.03;;
69161;SDS011;56269;51.738;21.652;2023-07-31T05:18:38;4.90;;;1.90;;
69161;SDS011;56269;51.738;21.652;2023-07-31T05:21:07;5.05;;;2.00;;
69161;SDS011;56269;51.738;21.652;2023-07-31T05:23:33;4.78;;;1.98;;
69161;SDS011;56269;51.738;21.652;2023-07-31T05:26:03;6.18;;;1.80;;
69161;SDS011;56269;51.738;21.652;2023-07-31T05:28:30;6.60;;;2.10;;
69161;SDS011;56269;51.738;21.652;2023-07-31T05:31:02;4.97;;;1.73;;
69161;SDS011;56269;51.738;21.652;2023-07-31T05:33:29;4.30;;;1.70;;
69161;SDS011;56269;51.738;21.652;2023-07-31T05:35:55;5.68;;;2.00;;
69161;SDS011;56269;51.738;21.652;2023-07-31T05:38:21;3.40;;;1.52;;
69161;SDS011;56269;51.738;21.652;2023-07-31T05:40:47;4.82;;;1.90;;
69161;SDS011;56269;51.738;21.652;2023-07-31T05:43:13;4.07;;;1.53;;
69161;SDS011;56269;51.738;21.652;2023-07-31T05:45:44;5.15;;;2.00;;
69161;SDS011;56269;51.738;21.652;2023-07-31T05:48:10;4.57;;;1.63;;
69161;SDS011;56269;51.738;21.652;2023-07-31T05:50:36;4.15;;;1.67;;
69161;SDS011;56269;51.738;21.652;2023-07-31T05:53:04;4.65;;;1.75;;
69161;SDS011;56269;51.738;21.652;2023-07-31T05:55:30;4.33;;;1.60;;
69161;SDS011;56269;51.738;21.652;2023-07-31T05:57:56;4.00;;;1.50;;
69161;SDS011;56269;51.738;21.652;2023-07-31T06:00:23;4.47;;;1.75;;
69161;SDS011;56269;51.738;21.652;2023-07-31T06:02:49;5.72;;;1.90;;
69161;SDS011;56269;51.738;21.652;2023-07-31T06:05:15;4.73;;;1.90;;
69161;SDS011;56269;51.738;21.652;2023-07-31T06:07:41;4.72;;;1.70;;
69161;SDS011;56269;51.738;21.652;2023-07-31T06:10:07;4.00;;;1.60;;
69161;SDS011;56269;51.738;21.652;2023-07-31T06:12:35;4.95;;;1.48;;
69161;SDS011;56269;51.738;21.652;2023-07-31T06:15:02;3.80;;;1.60;;
69161;SDS011;56269;51.738;21.652;2023-07-31T06:17:29;3.83;;;1.40;;
69161;SDS011;56269;51.738;21.652;2023-07-31T06:19:56;4.03;;;1.50;;
69161;SDS011;56269;51.738;21.652;2023-07-31T06:22:22;4.47;;;1.77;;
69161;SDS011;56269;51.738;21.652;2023-07-31T06:24:49;3.95;;;1.33;;
69161;SDS011;56269;51.738;21.652;2023-07-31T06:27:14;4.57;;;1.70;;
69161;SDS011;56269;51.738;21.652;2023-07-31T06:29:42;3.57;;;1.47;;
69161;SDS011;56269;51.738;21.652;2023-07-31T06:32:08;3.45;;;1.30;;
69161;SDS011;56269;51.738;21.652;2023-07-31T06:34:34;4.20;;;1.50;;
69161;SDS011;56269;51.738;21.652;2023-07-31T06:37:00;3.63;;;1.30;;
69161;SDS011;56269;51.738;21.652;2023-07-31T06:39:27;3.65;;;1.40;;
69161;SDS011;56269;51.738;21.652;2023-07-31T06:41:53;4.10;;;1.50;;
69161;SDS011;56269;51.738;21.652;2023-07-31T06:44:19;3.72;;;1.30;;
69161;SDS011;56269;51.738;21.652;2023-07-31T06:46:45;4.07;;;1.50;;
69161;SDS011;56269;51.738;21.652;2023-07-31T06:49:12;3.78;;;1.40;;
69161;SDS011;56269;51.738;21.652;2023-07-31T06:51:40;3.88;;;1.52;;
69161;SDS011;56269;51.738;21.652;2023-07-31T06:54:07;3.70;;;1.27;;
69161;SDS011;56269;51.738;21.652;2023-07-31T06:56:34;3.58;;;1.20;;
69161;SDS011;56269;51.738;21.652;2023-07-31T06:59:00;3.63;;;1.35;;
69161;SDS011;56269;51.738;21.652;2023-07-31T07:01:26;6.13;;;1.45;;
69161;SDS011;56269;51.738;21.652;2023-07-31T07:03:54;3.50;;;1.38;;
69161;SDS011;56269;51.738;21.652;2023-07-31T07:06:22;4.20;;;1.60;;
69161;SDS011;56269;51.738;21.652;2023-07-31T07:08:50;3.83;;;1.50;;
69161;SDS011;56269;51.738;21.652;2023-07-31T07:11:16;3.63;;;1.30;;
69161;SDS011;56269;51.738;21.652;2023-07-31T07:13:43;3.38;;;1.20;;
69161;SDS011;56269;51.738;21.652;2023-07-31T07:16:09;3.43;;;1.27;;
69161;SDS011;56269;51.738;21.652;2023-07-31T07:18:36;2.70;;;1.13;;
69161;SDS011;56269;51.738;21.652;2023-07-31T07:21:02;3.38;;;1.30;;
69161;SDS011;56269;51.738;21.652;2023-07-31T07:23:29;4.15;;;1.48;;
69161;SDS011;56269;51.738;21.652;2023-07-31T07:25:55;3.40;;;1.33;;
69161;SDS011;56269;51.738;21.652;2023-07-31T07:28:21;4.57;;;1.43;;
69161;SDS011;56269;51.738;21.652;2023-07-31T07:30:50;3.50;;;1.20;;
69161;SDS011;56269;51.738;21.652;2023-07-31T07:33:20;4.03;;;1.50;;
69161;SDS011;56269;51.738;21.652;2023-07-31T07:35:46;3.55;;;1.40;;
69161;SDS011;56269;51.738;21.652;2023-07-31T07:38:13;3.63;;;1.33;;
69161;SDS011;56269;51.738;21.652;2023-07-31T07:40:40;4.23;;;1.40;;
69161;SDS011;56269;51.738;21.652;2023-07-31T07:43:07;3.38;;;1.30;;
69161;SDS011;56269;51.738;21.652;2023-07-31T07:45:33;3.80;;;1.38;;
69161;SDS011;56269;51.738;21.652;2023-07-31T07:47:59;3.10;;;1.10;;
69161;SDS011;56269;51.738;21.652;2023-07-31T07:50:25;3.25;;;1.40;;
69161;SDS011;56269;51.738;21.652;2023-07-31T07:52:52;3.83;;;1.37;;
69161;SDS011;56269;51.738;21.652;2023-07-31T07:55:18;3.78;;;1.30;;
69161;SDS011;56269;51.738;21.652;2023-07-31T07:57:44;4.00;;;1.33;;
69161;SDS011;56269;51.738;21.652;2023-07-31T08:00:11;3.15;;;1.08;;
69161;SDS011;56269;51.738;21.652;2023-07-31T08:02:39;3.30;;;1.10;;
69161;SDS011;56269;51.738;21.652;2023-07-31T08:05:05;3.95;;;1.40;;
69161;SDS011;56269;51.738;21.652;2023-07-31T08:07:31;4.18;;;1.30;;
69161;SDS011;56269;51.738;21.652;2023-07-31T08:09:57;3.33;;;1.33;;
69161;SDS011;56269;51.738;21.652;2023-07-31T08:12:24;3.03;;;1.30;;
69161;SDS011;56269;51.738;21.652;2023-07-31T08:14:49;3.60;;;1.30;;
69161;SDS011;56269;51.738;21.652;2023-07-31T08:17:16;5.20;;;1.45;;
69161;SDS011;56269;51.738;21.652;2023-07-31T08:19:42;3.88;;;1.20;;
69161;SDS011;56269;51.738;21.652;2023-07-31T08:22:09;4.80;;;1.50;;
69161;SDS011;56269;51.738;21.652;2023-07-31T08:24:35;3.90;;;1.33;;
69161;SDS011;56269;51.738;21.652;2023-07-31T08:27:02;3.92;;;1.40;;
69161;SDS011;56269;51.738;21.652;2023-07-31T08:29:28;3.97;;;1.50;;
69161;SDS011;56269;51.738;21.652;2023-07-31T08:31:54;4.13;;;1.55;;
69161;SDS011;56269;51.738;21.652;2023-07-31T08:34:20;4.13;;;1.50;;
69161;SDS011;56269;51.738;21.652;2023-07-31T08:36:46;3.30;;;1.30;;
69161;SDS011;56269;51.738;21.652;2023-07-31T08:39:12;5.20;;;1.60;;
69161;SDS011;56269;51.738;21.652;2023-07-31T08:41:38;4.13;;;1.42;;
69161;SDS011;56269;51.738;21.652;2023-07-31T08:44:05;4.05;;;1.30;;
69161;SDS011;56269;51.738;21.652;2023-07-31T08:46:32;4.07;;;1.60;;
69161;SDS011;56269;51.738;21.652;2023-07-31T08:49:00;3.40;;;1.33;;
69161;SDS011;56269;51.738;21.652;2023-07-31T08:51:29;3.90;;;1.48;;
69161;SDS011;56269;51.738;21.652;2023-07-31T08:53:56;2.75;;;1.15;;
69161;SDS011;56269;51.738;21.652;2023-07-31T08:56:23;4.03;;;1.45;;
69161;SDS011;56269;51.738;21.652;2023-07-31T08:58:50;3.50;;;1.30;;
69161;SDS011;56269;51.738;21.652;2023-07-31T09:01:18;4.53;;;1.40;;
69161;SDS011;56269;51.738;21.652;2023-07-31T09:03:45;4.05;;;1.50;;
69161;SDS011;56269;51.738;21.652;2023-07-31T09:06:12;4.50;;;1.65;;
69161;SDS011;56269;51.738;21.652;2023-07-31T09:08:39;4.30;;;1.55;;
69161;SDS011;56269;51.738;21.652;2023-07-31T09:11:08;4.57;;;1.80;;
69161;SDS011;56269;51.738;21.652;2023-07-31T09:13:34;4.37;;;1.53;;
69161;SDS011;56269;51.738;21.652;2023-07-31T09:16:00;4.13;;;1.60;;
69161;SDS011;56269;51.738;21.652;2023-07-31T09:18:26;3.67;;;1.50;;
69161;SDS011;56269;51.738;21.652;2023-07-31T09:23:41;4.43;;;1.52;;
69161;SDS011;56269;51.738;21.652;2023-07-31T09:26:09;3.83;;;1.30;;
69161;SDS011;56269;51.738;21.652;2023-07-31T09:28:36;4.05;;;1.55;;
69161;SDS011;56269;51.738;21.652;2023-07-31T09:31:02;4.30;;;1.50;;
69161;SDS011;56269;51.738;21.652;2023-07-31T09:33:28;3.58;;;1.48;;
69161;SDS011;56269;51.738;21.652;2023-07-31T09:35:54;3.90;;;1.60;;
69161;SDS011;56269;51.738;21.652;2023-07-31T09:38:20;4.03;;;1.43;;
69161;SDS011;56269;51.738;21.652;2023-07-31T09:40:47;4.00;;;1.40;;
69161;SDS011;56269;51.738;21.652;2023-07-31T09:43:18;3.80;;;1.40;;
69161;SDS011;56269;51.738;21.652;2023-07-31T09:45:46;3.13;;;1.30;;
69161;SDS011;56269;51.738;21.652;2023-07-31T09:48:17;3.67;;;1.42;;
69161;SDS011;56269;51.738;21.652;2023-07-31T09:50:44;4.67;;;1.40;;
69161;SDS011;56269;51.738;21.652;2023-07-31T09:53:11;3.38;;;1.23;;
69161;SDS011;56269;51.738;21.652;2023-07-31T09:55:39;3.92;;;1.30;;
69161;SDS011;56269;51.738;21.652;2023-07-31T09:58:07;3.55;;;1.38;;
69161;SDS011;56269;51.738;21.652;2023-07-31T10:00:35;3.58;;;1.48;;
69161;SDS011;56269;51.738;21.652;2023-07-31T10:03:05;3.63;;;1.27;;
69161;SDS011;56269;51.738;21.652;2023-07-31T10:05:42;3.90;;;1.40;;
69161;SDS011;56269;51.738;21.652;2023-07-31T10:08:15;3.78;;;1.45;;
69161;SDS011;56269;51.738;21.652;2023-07-31T10:10:44;3.80;;;1.40;;
69161;SDS011;56269;51.738;21.652;2023-07-31T10:13:12;3.75;;;1.55;;
69161;SDS011;56269;51.738;21.652;2023-07-31T10:15:39;2.90;;;1.13;;
69161;SDS011;56269;51.738;21.652;2023-07-31T10:18:09;3.58;;;1.40;;
69161;SDS011;56269;51.738;21.652;2023-07-31T10:20:37;5.28;;;1.50;;
69161;SDS011;56269;51.738;21.652;2023-07-31T10:23:03;3.53;;;1.13;;
69161;SDS011;56269;51.738;21.652;2023-07-31T10:25:30;3.05;;;1.30;;
69161;SDS011;56269;51.738;21.652;2023-07-31T10:27:58;3.17;;;1.20;;
69161;SDS011;56269;51.738;21.652;2023-07-31T10:30:27;4.30;;;1.60;;
69161;SDS011;56269;51.738;21.652;2023-07-31T10:32:56;4.00;;;1.30;;
69161;SDS011;56269;51.738;21.652;2023-07-31T10:35:23;3.53;;;1.40;;
69161;SDS011;56269;51.738;21.652;2023-07-31T10:37:49;4.00;;;1.50;;
69161;SDS011;56269;51.738;21.652;2023-07-31T10:40:16;3.33;;;1.23;;
69161;SDS011;56269;51.738;21.652;2023-07-31T10:45:26;3.75;;;1.45;;
69161;SDS011;56269;51.738;21.652;2023-07-31T10:48:32;3.47;;;1.30;;
69161;SDS011;56269;51.738;21.652;2023-07-31T10:50:58;3.60;;;1.38;;
69161;SDS011;56269;51.738;21.652;2023-07-31T10:53:34;4.63;;;1.50;;
69161;SDS011;56269;51.738;21.652;2023-07-31T10:56:01;5.95;;;1.50;;
69161;SDS011;56269;51.738;21.652;2023-07-31T10:58:31;4.00;;;1.42;;
69161;SDS011;56269;51.738;21.652;2023-07-31T11:00:59;3.70;;;1.35;;
69161;SDS011;56269;51.738;21.652;2023-07-31T11:06:15;3.90;;;1.40;;
69161;SDS011;56269;51.738;21.652;2023-07-31T11:08:43;4.53;;;1.80;;
69161;SDS011;56269;51.738;21.652;2023-07-31T11:11:11;4.00;;;1.50;;
69161;SDS011;56269;51.738;21.652;2023-07-31T11:13:42;3.47;;;1.30;;
69161;SDS011;56269;51.738;21.652;2023-07-31T11:16:11;3.60;;;1.42;;
69161;SDS011;56269;51.738;21.652;2023-07-31T11:18:42;3.67;;;1.13;;
69161;SDS011;56269;51.738;21.652;2023-07-31T11:21:14;2.53;;;1.00;;
69161;SDS011;56269;51.738;21.652;2023-07-31T11:23:41;4.30;;;1.50;;
69161;SDS011;56269;51.738;21.652;2023-07-31T11:26:13;4.18;;;1.55;;
69161;SDS011;56269;51.738;21.652;2023-07-31T11:28:40;3.33;;;1.20;;
69161;SDS011;56269;51.738;21.652;2023-07-31T11:31:08;4.60;;;1.50;;
69161;SDS011;56269;51.738;21.652;2023-07-31T11:33:36;4.90;;;1.60;;
69161;SDS011;56269;51.738;21.652;2023-07-31T11:36:03;3.92;;;1.45;;
69161;SDS011;56269;51.738;21.652;2023-07-31T11:41:00;3.55;;;1.35;;
69161;SDS011;56269;51.738;21.652;2023-07-31T11:43:32;4.87;;;1.70;;
69161;SDS011;56269;51.738;21.652;2023-07-31T11:45:59;2.95;;;1.13;;
69161;SDS011;56269;51.738;21.652;2023-07-31T11:48:30;3.65;;;1.10;;
69161;SDS011;56269;51.738;21.652;2023-07-31T11:51:05;2.13;;;0.95;;
69161;SDS011;56269;51.738;21.652;2023-07-31T11:56:06;3.23;;;1.20;;
69161;SDS011;56269;51.738;21.652;2023-07-31T11:58:34;3.25;;;1.20;;
69161;SDS011;56269;51.738;21.652;2023-07-31T12:01:02;3.70;;;1.20;;
69161;SDS011;56269;51.738;21.652;2023-07-31T12:03:28;4.18;;;1.20;;
69161;SDS011;56269;51.738;21.652;2023-07-31T12:05:55;4.43;;;1.80;;
69161;SDS011;56269;51.738;21.652;2023-07-31T12:08:22;3.23;;;1.20;;
69161;SDS011;56269;51.738;21.652;2023-07-31T12:10:50;4.10;;;1.40;;
69161;SDS011;56269;51.738;21.652;2023-07-31T12:13:21;3.53;;;1.27;;
69161;SDS011;56269;51.738;21.652;2023-07-31T12:15:53;3.22;;;1.20;;
69161;SDS011;56269;51.738;21.652;2023-07-31T12:18:20;3.28;;;1.20;;
69161;SDS011;56269;51.738;21.652;2023-07-31T12:20:48;2.50;;;1.17;;
69161;SDS011;56269;51.738;21.652;2023-07-31T12:23:20;4.32;;;1.10;;
69161;SDS011;56269;51.738;21.652;2023-07-31T12:26:09;3.47;;;1.38;;
69161;SDS011;56269;51.738;21.652;2023-07-31T12:28:36;3.30;;;1.23;;
69161;SDS011;56269;51.738;21.652;2023-07-31T12:31:10;3.58;;;1.30;;
69161;SDS011;56269;51.738;21.652;2023-07-31T12:33:38;3.67;;;1.40;;
69161;SDS011;56269;51.738;21.652;2023-07-31T12:36:15;3.50;;;1.50;;
69161;SDS011;56269;51.738;21.652;2023-07-31T12:39:01;3.58;;;1.40;;
69161;SDS011;56269;51.738;21.652;2023-07-31T12:41:27;3.90;;;1.40;;
69161;SDS011;56269;51.738;21.652;2023-07-31T12:43:54;4.75;;;1.52;;
69161;SDS011;56269;51.738;21.652;2023-07-31T12:46:20;3.83;;;1.57;;
69161;SDS011;56269;51.738;21.652;2023-07-31T12:48:47;3.58;;;1.42;;
69161;SDS011;56269;51.738;21.652;2023-07-31T12:51:13;4.07;;;1.17;;
69161;SDS011;56269;51.738;21.652;2023-07-31T12:53:39;4.20;;;1.15;;
69161;SDS011;56269;51.738;21.652;2023-07-31T12:56:05;5.03;;;1.30;;
69161;SDS011;56269;51.738;21.652;2023-07-31T12:58:31;3.60;;;1.40;;
69161;SDS011;56269;51.738;21.652;2023-07-31T13:00:58;3.33;;;1.30;;
69161;SDS011;56269;51.738;21.652;2023-07-31T13:03:24;2.97;;;1.23;;
69161;SDS011;56269;51.738;21.652;2023-07-31T13:05:50;4.25;;;1.50;;
69161;SDS011;56269;51.738;21.652;2023-07-31T13:08:17;3.80;;;1.50;;
69161;SDS011;56269;51.738;21.652;2023-07-31T13:10:45;3.10;;;1.30;;
69161;SDS011;56269;51.738;21.652;2023-07-31T13:13:11;4.68;;;1.42;;
69161;SDS011;56269;51.738;21.652;2023-07-31T13:15:37;4.45;;;1.30;;
69161;SDS011;56269;51.738;21.652;2023-07-31T13:18:03;3.40;;;1.17;;
69161;SDS011;56269;51.738;21.652;2023-07-31T13:20:30;4.07;;;1.48;;
69161;SDS011;56269;51.738;21.652;2023-07-31T13:22:56;3.40;;;1.23;;
69161;SDS011;56269;51.738;21.652;2023-07-31T13:25:22;3.13;;;1.23;;
69161;SDS011;56269;51.738;21.652;2023-07-31T13:27:48;3.63;;;1.23;;
69161;SDS011;56269;51.738;21.652;2023-07-31T13:30:15;3.38;;;1.25;;
69161;SDS011;56269;51.738;21.652;2023-07-31T13:32:41;4.10;;;1.40;;
69161;SDS011;56269;51.738;21.652;2023-07-31T13:35:07;5.20;;;1.17;;
69161;SDS011;56269;51.738;21.652;2023-07-31T13:37:35;2.92;;;1.20;;
69161;SDS011;56269;51.738;21.652;2023-07-31T13:40:01;3.30;;;1.20;;
69161;SDS011;56269;51.738;21.652;2023-07-31T13:42:30;3.47;;;1.40;;
69161;SDS011;56269;51.738;21.652;2023-07-31T13:44:57;4.05;;;1.30;;
69161;SDS011;56269;51.738;21.652;2023-07-31T13:47:23;3.37;;;1.40;;
69161;SDS011;56269;51.738;21.652;2023-07-31T13:49:49;4.00;;;1.50;;
69161;SDS011;56269;51.738;21.652;2023-07-31T13:52:15;3.45;;;1.40;;
69161;SDS011;56269;51.738;21.652;2023-07-31T13:54:41;3.97;;;1.60;;
69161;SDS011;56269;51.738;21.652;2023-07-31T13:57:08;2.90;;;1.20;;
69161;SDS011;56269;51.738;21.652;2023-07-31T13:59:34;3.33;;;1.30;;
69161;SDS011;56269;51.738;21.652;2023-07-31T14:02:02;4.13;;;1.38;;
69161;SDS011;56269;51.738;21.652;2023-07-31T14:04:29;3.90;;;1.20;;
69161;SDS011;56269;51.738;21.652;2023-07-31T14:06:55;3.50;;;1.33;;
69161;SDS011;56269;51.738;21.652;2023-07-31T14:09:22;3.07;;;1.20;;
69161;SDS011;56269;51.738;21.652;2023-07-31T14:11:48;3.45;;;1.30;;
69161;SDS011;56269;51.738;21.652;2023-07-31T14:14:15;5.15;;;1.67;;
69161;SDS011;56269;51.738;21.652;2023-07-31T14:16:43;4.38;;;1.50;;
69161;SDS011;56269;51.738;21.652;2023-07-31T14:19:09;3.75;;;1.35;;
69161;SDS011;56269;51.738;21.652;2023-07-31T14:21:35;3.00;;;1.20;;
69161;SDS011;56269;51.738;21.652;2023-07-31T14:24:02;4.55;;;1.50;;
69161;SDS011;56269;51.738;21.652;2023-07-31T14:26:28;3.35;;;1.30;;
69161;SDS011;56269;51.738;21.652;2023-07-31T14:28:54;3.17;;;1.20;;
69161;SDS011;56269;51.738;21.652;2023-07-31T14:31:21;4.30;;;1.20;;
69161;SDS011;56269;51.738;21.652;2023-07-31T14:33:47;4.37;;;1.40;;
69161;SDS011;56269;51.738;21.652;2023-07-31T14:36:13;4.35;;;1.33;;
69161;SDS011;56269;51.738;21.652;2023-07-31T14:38:40;3.08;;;1.20;;
69161;SDS011;56269;51.738;21.652;2023-07-31T14:41:06;3.05;;;1.23;;
69161;SDS011;56269;51.738;21.652;2023-07-31T14:43:32;3.38;;;1.20;;
69161;SDS011;56269;51.738;21.652;2023-07-31T14:45:58;3.00;;;1.10;;
69161;SDS011;56269;51.738;21.652;2023-07-31T14:48:26;2.67;;;0.93;;
69161;SDS011;56269;51.738;21.652;2023-07-31T14:50:52;3.72;;;1.30;;
69161;SDS011;56269;51.738;21.652;2023-07-31T14:53:19;3.30;;;1.23;;
69161;SDS011;56269;51.738;21.652;2023-07-31T14:55:46;3.25;;;1.20;;